Time;durP1;ratioP1;P1;durP2;ratioP2;P2;SDS_P1;SDS_P2;PMS_P1;PMS_P2;Temp;Humidity;BMP_temperature;BMP_pressure;BME280_temperature;BME280_humidity;BME280_pressure;Samples;Min_cycle;Max_cycle;Signal;HPM_P1;HPM_P2
2023/08/12 00:03:44;;;;;;;7.15;3.30;;;;;;;;;;10545084;27;20065;-85
2023/08/12 00:08:48;;;;;;;5.70;2.97;;;;;;;;;;10574565;27;20774;-84
2023/08/12 00:13:53;;;;;;;4.65;2.97;;;;;;;;;;10556423;27;20051;-85
2023/08/12 00:19:05;;;;;;;5.50;3.00;;;;;;;;;;10557747;27;20661;-85
2023/08/12 00:24:14;;;;;;;5.85;3.30;;;;;;;;;;10569159;27;20035;-85
2023/08/12 00:29:18;;;;;;;7.07;3.28;;;;;;;;;;10556986;27;20039;-85
2023/08/12 00:34:37;;;;;;;7.35;3.30;;;;;;;;;;10552729;27;20102;-85
2023/08/12 00:39:45;;;;;;;5.57;2.88;;;;;;;;;;10566471;27;20080;-85
2023/08/12 00:44:51;;;;;;;6.88;3.80;;;;;;;;;;10564829;27;20354;-85
2023/08/12 00:49:58;;;;;;;6.63;4.18;;;;;;;;;;10545377;27;20076;-85
2023/08/12 00:55:04;;;;;;;8.60;3.65;;;;;;;;;;10570537;27;20051;-84
2023/08/12 01:00:09;;;;;;;6.80;3.72;;;;;;;;;;10567656;27;20048;-84
2023/08/12 01:05:17;;;;;;;5.40;3.30;;;;;;;;;;10557688;28;20071;-84
2023/08/12 01:10:23;;;;;;;6.53;3.67;;;;;;;;;;10557159;28;20068;-84
2023/08/12 01:15:28;;;;;;;6.93;3.42;;;;;;;;;;10575630;28;20275;-84
2023/08/12 01:20:34;;;;;;;7.55;3.80;;;;;;;;;;10565414;27;20047;-85
2023/08/12 01:25:41;;;;;;;6.13;3.55;;;;;;;;;;10557612;27;20578;-84
2023/08/12 01:30:51;;;;;;;7.25;3.65;;;;;;;;;;10572299;27;21258;-85
2023/08/12 01:36:00;;;;;;;6.15;3.70;;;;;;;;;;10564198;27;20068;-84
2023/08/12 01:41:19;;;;;;;5.80;3.72;;;;;;;;;;10570474;27;20039;-83
2023/08/12 01:46:38;;;;;;;7.85;3.95;;;;;;;;;;10568853;27;20043;-84
2023/08/12 01:51:58;;;;;;;5.63;3.53;;;;;;;;;;10578564;27;20138;-85
2023/08/12 01:57:10;;;;;;;6.20;3.33;;;;;;;;;;10569389;27;20085;-85
2023/08/12 02:02:20;;;;;;;6.10;3.67;;;;;;;;;;10571743;27;20043;-85
2023/08/12 02:07:33;;;;;;;6.85;3.65;;;;;;;;;;10563110;27;20047;-85
2023/08/12 02:12:43;;;;;;;7.60;3.55;;;;;;;;;;10558011;27;20371;-86
2023/08/12 02:17:56;;;;;;;9.00;3.80;;;;;;;;;;10573669;27;20048;-86
2023/08/12 02:23:24;;;;;;;6.80;3.70;;;;;;;;;;10553970;27;20047;-85
2023/08/12 02:28:36;;;;;;;5.45;3.10;;;;;;;;;;10571312;27;20054;-86
2023/08/12 02:33:43;;;;;;;7.60;3.60;;;;;;;;;;10595099;27;20035;-85
2023/08/12 02:38:49;;;;;;;6.95;3.50;;;;;;;;;;10610272;27;20040;-83
2023/08/12 02:43:55;;;;;;;5.60;3.47;;;;;;;;;;10589488;27;20042;-86
2023/08/12 02:49:01;;;;;;;5.63;3.50;;;;;;;;;;10579871;27;20451;-85
2023/08/12 02:54:10;;;;;;;5.10;3.10;;;;;;;;;;10577411;27;20052;-86
2023/08/12 02:59:17;;;;;;;7.07;3.67;;;;;;;;;;10570942;27;20119;-85
2023/08/12 03:04:24;;;;;;;6.38;3.70;;;;;;;;;;10551308;27;20039;-86
2023/08/12 03:09:41;;;;;;;6.47;3.60;;;;;;;;;;10561621;27;20035;-86
2023/08/12 03:14:48;;;;;;;6.63;3.60;;;;;;;;;;10566692;27;20052;-86
2023/08/12 03:19:56;;;;;;;6.88;3.85;;;;;;;;;;10537863;27;20364;-86
2023/08/12 03:25:26;;;;;;;6.40;3.28;;;;;;;;;;10550827;27;20411;-84
2023/08/12 03:30:28;;;;;;;7.18;3.88;;;;;;;;;;10545208;28;20474;-84
2023/08/12 03:35:31;;;;;;;6.83;3.70;;;;;;;;;;10544231;28;20494;-84
2023/08/12 03:40:38;;;;;;;7.77;4.00;;;;;;;;;;10539208;28;20079;-85
2023/08/12 03:45:41;;;;;;;9.38;4.18;;;;;;;;;;10538956;28;20051;-85
2023/08/12 03:50:46;;;;;;;6.20;3.88;;;;;;;;;;10535375;28;20052;-85
2023/08/12 03:55:50;;;;;;;8.05;4.10;;;;;;;;;;10533658;28;20139;-85
2023/08/12 04:00:53;;;;;;;7.97;3.88;;;;;;;;;;10537582;28;20036;-85
2023/08/12 04:05:56;;;;;;;9.63;4.03;;;;;;;;;;10533617;28;20102;-85
2023/08/12 04:11:00;;;;;;;6.85;3.28;;;;;;;;;;10531464;28;20070;-85
2023/08/12 04:16:03;;;;;;;7.28;3.58;;;;;;;;;;10542721;28;20048;-84
2023/08/12 04:21:06;;;;;;;5.93;3.38;;;;;;;;;;10546066;28;20437;-84
2023/08/12 04:26:10;;;;;;;5.75;3.60;;;;;;;;;;10540192;28;20062;-83
2023/08/12 04:31:13;;;;;;;5.80;3.25;;;;;;;;;;10539128;28;20123;-84
2023/08/12 04:36:16;;;;;;;7.47;3.78;;;;;;;;;;10505849;28;20345;-84
2023/08/12 04:41:23;;;;;;;9.15;3.80;;;;;;;;;;10505699;28;20123;-83
2023/08/12 04:46:26;;;;;;;6.68;3.60;;;;;;;;;;10501519;28;20474;-84
2023/08/12 04:51:29;;;;;;;5.90;3.65;;;;;;;;;;10509606;28;20047;-84
2023/08/12 04:56:33;;;;;;;7.37;4.10;;;;;;;;;;10503588;28;20059;-85
2023/08/12 05:01:37;;;;;;;8.70;4.10;;;;;;;;;;10512250;28;20320;-86
2023/08/12 05:06:56;;;;;;;6.88;3.47;;;;;;;;;;10504657;28;20460;-86
2023/08/12 05:12:00;;;;;;;7.93;4.20;;;;;;;;;;10506718;28;20412;-86
2023/08/12 05:17:03;;;;;;;8.43;3.83;;;;;;;;;;10506298;28;20036;-85
2023/08/12 05:22:05;;;;;;;9.87;4.10;;;;;;;;;;10510126;28;20500;-85
2023/08/12 05:27:10;;;;;;;7.30;3.85;;;;;;;;;;10499022;28;20699;-86
2023/08/12 05:32:13;;;;;;;8.35;4.05;;;;;;;;;;10506892;28;20036;-86
2023/08/12 05:37:16;;;;;;;7.93;4.43;;;;;;;;;;10507924;28;20032;-86
2023/08/12 05:42:20;;;;;;;6.40;3.97;;;;;;;;;;10505261;28;20044;-86
2023/08/12 05:47:24;;;;;;;8.00;4.20;;;;;;;;;;10517069;28;20081;-86
2023/08/12 05:52:27;;;;;;;6.55;3.55;;;;;;;;;;10503255;28;20060;-86
2023/08/12 05:57:32;;;;;;;7.18;4.18;;;;;;;;;;10515399;28;20059;-87
2023/08/12 06:02:35;;;;;;;5.65;3.63;;;;;;;;;;10508931;28;20040;-86
2023/08/12 06:07:38;;;;;;;6.07;3.63;;;;;;;;;;10506954;28;20055;-85
2023/08/12 06:12:42;;;;;;;4.22;2.67;;;;;;;;;;10501415;28;20309;-86
2023/08/12 06:17:45;;;;;;;7.00;3.17;;;;;;;;;;10501061;28;20048;-86
2023/08/12 06:22:48;;;;;;;5.47;3.30;;;;;;;;;;10505939;28;20032;-86
2023/08/12 06:27:53;;;;;;;3.92;2.30;;;;;;;;;;10509310;28;20095;-86
2023/08/12 06:32:55;;;;;;;4.53;2.85;;;;;;;;;;10500024;28;20093;-86
2023/08/12 06:37:58;;;;;;;6.35;3.05;;;;;;;;;;10503031;28;20502;-85
2023/08/12 06:43:02;;;;;;;6.72;3.33;;;;;;;;;;10504091;28;20440;-85
2023/08/12 06:48:05;;;;;;;4.97;3.30;;;;;;;;;;10505544;28;20044;-86
2023/08/12 06:53:08;;;;;;;4.93;2.80;;;;;;;;;;10511584;28;20521;-85
2023/08/12 06:58:13;;;;;;;5.45;3.17;;;;;;;;;;10504432;28;20405;-86
2023/08/12 07:03:17;;;;;;;5.22;3.33;;;;;;;;;;10499352;28;20543;-86
2023/08/12 07:08:19;;;;;;;4.30;2.80;;;;;;;;;;10497481;28;20123;-86
2023/08/12 07:13:22;;;;;;;;;;;;;;;;;;10504136;28;20086;-85
2023/08/12 07:18:26;;;;;;;5.63;3.40;;;;;;;;;;10506663;28;19928;-86
2023/08/12 07:23:30;;;;;;;4.07;3.05;;;;;;;;;;10499622;28;20040;-85
2023/08/12 07:28:33;;;;;;;5.78;3.40;;;;;;;;;;10507992;28;20044;-86
2023/08/12 07:33:37;;;;;;;4.90;3.33;;;;;;;;;;10496739;28;20064;-86
2023/08/12 07:38:39;;;;;;;4.55;3.30;;;;;;;;;;10498404;28;20071;-86
2023/08/12 07:43:42;;;;;;;7.38;3.13;;;;;;;;;;10499907;28;20043;-87
2023/08/12 07:48:47;;;;;;;4.72;3.25;;;;;;;;;;10507091;28;20063;-87
2023/08/12 07:53:50;;;;;;;3.60;3.15;;;;;;;;;;10496931;28;20120;-87
2023/08/12 07:58:53;;;;;;;5.03;3.53;;;;;;;;;;10501503;28;20045;-87
2023/08/12 08:03:57;;;;;;;6.20;3.30;;;;;;;;;;10500387;28;20032;-87
2023/08/12 08:09:02;;;;;;;4.00;3.40;;;;;;;;;;10509481;28;20036;-87
2023/08/12 08:14:05;;;;;;;3.60;3.30;;;;;;;;;;10513713;28;20060;-87
2023/08/12 08:19:09;;;;;;;4.22;2.88;;;;;;;;;;10508712;28;20035;-87
2023/08/12 08:24:15;;;;;;;3.83;3.42;;;;;;;;;;10521962;28;20070;-87
2023/08/12 08:29:17;;;;;;;4.65;3.20;;;;;;;;;;10518937;28;20178;-88
2023/08/12 08:34:22;;;;;;;3.20;2.80;;;;;;;;;;10516933;28;20040;-87
2023/08/12 08:39:24;;;;;;;5.30;3.00;;;;;;;;;;10511334;28;20056;-87
2023/08/12 08:44:29;;;;;;;5.72;4.45;;;;;;;;;;10521583;28;20131;-87
2023/08/12 08:49:35;;;;;;;4.35;3.72;;;;;;;;;;10515142;28;20101;-88
2023/08/12 08:54:38;;;;;;;4.88;3.47;;;;;;;;;;10516771;28;20036;-88
2023/08/12 08:59:42;;;;;;;4.53;3.38;;;;;;;;;;10508758;28;20091;-89
2023/08/12 09:04:47;;;;;;;4.78;3.40;;;;;;;;;;10515403;28;20109;-87
2023/08/12 09:09:52;;;;;;;3.55;3.15;;;;;;;;;;10506682;28;20071;-88
2023/08/12 09:14:55;;;;;;;5.47;3.05;;;;;;;;;;10506298;28;20135;-79
2023/08/12 09:19:59;;;;;;;5.55;3.10;;;;;;;;;;10506335;28;20412;-77
2023/08/12 09:25:04;;;;;;;5.55;3.35;;;;;;;;;;10504273;28;20040;-78
2023/08/12 09:30:08;;;;;;;4.82;3.15;;;;;;;;;;10510874;28;20037;-76
2023/08/12 09:35:17;;;;;;;5.90;3.45;;;;;;;;;;10503412;28;20039;-77
2023/08/12 09:40:20;;;;;;;4.13;3.17;;;;;;;;;;10502041;28;20070;-77
2023/08/12 09:45:24;;;;;;;5.47;3.30;;;;;;;;;;10504603;28;20048;-77
2023/08/12 09:50:29;;;;;;;4.32;3.20;;;;;;;;;;10509315;28;20040;-77
2023/08/12 09:55:32;;;;;;;4.55;3.40;;;;;;;;;;10504038;28;20063;-76
2023/08/12 10:00:36;;;;;;;4.88;3.05;;;;;;;;;;10508507;28;20051;-76
2023/08/12 10:05:40;;;;;;;4.40;3.50;;;;;;;;;;10506569;28;20052;-77
2023/08/12 10:10:43;;;;;;;4.35;3.78;;;;;;;;;;10505705;28;20047;-77
2023/08/12 10:15:52;;;;;;;4.60;3.60;;;;;;;;;;10514592;28;20490;-76
2023/08/12 10:20:57;;;;;;;5.85;3.63;;;;;;;;;;10503255;28;20553;-78
2023/08/12 10:26:00;;;;;;;4.65;3.30;;;;;;;;;;10501780;28;20549;-78
2023/08/12 10:31:03;;;;;;;5.93;3.88;;;;;;;;;;10503784;28;20121;-78
2023/08/12 10:36:08;;;;;;;5.13;4.10;;;;;;;;;;10503242;28;20521;-78
2023/08/12 10:41:18;;;;;;;4.95;4.10;;;;;;;;;;10502186;28;20044;-78
2023/08/12 10:46:28;;;;;;;5.20;4.32;;;;;;;;;;10502994;28;20036;-78
2023/08/12 10:51:48;;;;;;;4.25;3.92;;;;;;;;;;10500846;28;20048;-78
2023/08/12 10:57:13;;;;;;;3.80;3.40;;;;;;;;;;10514191;28;20036;-78
2023/08/12 11:02:17;;;;;;;3.53;3.30;;;;;;;;;;10505854;28;20041;-78
2023/08/12 11:07:23;;;;;;;4.10;3.72;;;;;;;;;;10504106;28;20045;-78
2023/08/12 11:12:30;;;;;;;3.60;3.30;;;;;;;;;;10497047;28;20075;-78
2023/08/12 11:17:34;;;;;;;4.00;3.60;;;;;;;;;;10497813;28;20115;-77
2023/08/12 11:22:41;;;;;;;6.97;3.33;;;;;;;;;;10498272;28;20040;-78
2023/08/12 11:27:45;;;;;;;3.75;3.45;;;;;;;;;;10503762;28;20486;-78
2023/08/12 11:32:54;;;;;;;4.93;3.20;;;;;;;;;;10497710;28;20045;-78
2023/08/12 11:37:58;;;;;;;4.35;3.28;;;;;;;;;;10508033;28;20044;-78
2023/08/12 11:43:02;;;;;;;6.22;3.40;;;;;;;;;;10505820;28;20039;-78
2023/08/12 11:48:09;;;;;;;5.63;3.43;;;;;;;;;;10508175;28;20032;-79
2023/08/12 11:53:13;;;;;;;4.45;3.50;;;;;;;;;;10503018;28;20796;-78
2023/08/12 11:58:18;;;;;;;3.80;3.42;;;;;;;;;;10516493;28;20059;-78
2023/08/12 12:03:22;;;;;;;5.35;3.58;;;;;;;;;;10509719;28;20063;-79
2023/08/12 12:08:26;;;;;;;4.03;3.30;;;;;;;;;;10519038;28;20326;-76
2023/08/12 12:13:30;;;;;;;4.20;3.10;;;;;;;;;;10514594;28;20119;-77
2023/08/12 12:18:36;;;;;;;3.80;2.80;;;;;;;;;;10517052;28;20479;-78
2023/08/12 12:23:40;;;;;;;3.58;3.05;;;;;;;;;;10503806;28;20040;-77
2023/08/12 12:28:43;;;;;;;3.05;2.83;;;;;;;;;;10500604;28;20032;-78
2023/08/12 12:33:46;;;;;;;4.05;2.78;;;;;;;;;;10509730;28;20051;-78
2023/08/12 12:38:50;;;;;;;4.18;2.78;;;;;;;;;;10516307;28;20048;-77
2023/08/12 12:43:53;;;;;;;4.22;3.13;;;;;;;;;;10505323;28;20060;-78
2023/08/12 12:48:55;;;;;;;3.92;3.45;;;;;;;;;;10501772;28;20032;-78
2023/08/12 12:54:05;;;;;;;4.43;3.40;;;;;;;;;;10504150;28;20605;-78
2023/08/12 12:59:08;;;;;;;4.55;3.15;;;;;;;;;;10508761;28;20067;-76
2023/08/12 13:04:11;;;;;;;3.60;2.63;;;;;;;;;;10516884;28;20050;-77
2023/08/12 13:09:16;;;;;;;4.75;2.95;;;;;;;;;;10522639;28;20106;-77
2023/08/12 13:14:20;;;;;;;3.30;2.60;;;;;;;;;;10512542;28;20607;-78
2023/08/12 13:19:23;;;;;;;3.83;2.45;;;;;;;;;;10511544;28;20048;-78
2023/08/12 13:24:28;;;;;;;2.90;2.33;;;;;;;;;;10502337;28;20051;-77
2023/08/12 13:29:32;;;;;;;2.83;2.35;;;;;;;;;;10500322;28;20046;-77
2023/08/12 13:34:39;;;;;;;3.80;2.55;;;;;;;;;;10508903;28;20094;-78
2023/08/12 13:39:43;;;;;;;3.22;2.65;;;;;;;;;;10502841;28;20055;-78
2023/08/12 13:44:46;;;;;;;3.20;2.42;;;;;;;;;;10505217;28;20422;-78
2023/08/12 13:49:49;;;;;;;6.88;3.05;;;;;;;;;;10505362;28;20505;-77
2023/08/12 13:54:54;;;;;;;4.35;2.60;;;;;;;;;;10510250;28;20367;-78
2023/08/12 13:59:56;;;;;;;6.60;2.60;;;;;;;;;;10513716;28;20036;-78
2023/08/12 14:04:59;;;;;;;16.27;2.75;;;;;;;;;;10500956;28;20428;-78
2023/08/12 14:10:04;;;;;;;3.78;2.40;;;;;;;;;;10500369;28;20052;-78
2023/08/12 14:15:08;;;;;;;3.20;2.50;;;;;;;;;;10503916;28;20445;-78
2023/08/12 14:20:11;;;;;;;2.67;2.25;;;;;;;;;;10508433;28;20079;-77
2023/08/12 14:25:16;;;;;;;5.10;2.83;;;;;;;;;;10504823;28;20040;-78
2023/08/12 14:30:24;;;;;;;8.07;2.60;;;;;;;;;;10506848;28;20454;-78
2023/08/12 14:35:27;;;;;;;4.68;2.88;;;;;;;;;;10509872;28;20629;-78
2023/08/12 14:40:32;;;;;;;4.32;3.10;;;;;;;;;;10502249;28;20064;-77
2023/08/12 14:45:34;;;;;;;4.53;2.83;;;;;;;;;;10508669;28;20041;-77
2023/08/12 14:50:38;;;;;;;4.47;2.75;;;;;;;;;;10503595;28;20414;-77
2023/08/12 14:55:42;;;;;;;3.30;2.70;;;;;;;;;;10498083;28;20051;-78
2023/08/12 15:00:45;;;;;;;9.93;3.25;;;;;;;;;;10502423;28;20354;-78
2023/08/12 15:05:48;;;;;;;7.88;3.03;;;;;;;;;;10505433;28;20116;-78
2023/08/12 15:10:52;;;;;;;6.43;2.83;;;;;;;;;;10509293;28;20101;-78
2023/08/12 15:15:55;;;;;;;8.80;2.63;;;;;;;;;;10505858;28;20052;-77
2023/08/12 15:21:03;;;;;;;5.60;2.65;;;;;;;;;;10505096;28;20043;-77
2023/08/12 15:26:08;;;;;;;5.50;2.47;;;;;;;;;;10498238;28;20037;-77
2023/08/12 15:31:11;;;;;;;5.10;2.53;;;;;;;;;;10505047;28;20131;-77
2023/08/12 15:36:15;;;;;;;4.78;2.60;;;;;;;;;;10497194;28;20036;-77
2023/08/12 15:41:21;;;;;;;4.80;2.30;;;;;;;;;;10500579;28;20058;-76
2023/08/12 15:46:24;;;;;;;5.38;2.35;;;;;;;;;;10498826;28;20044;-77
2023/08/12 15:51:27;;;;;;;5.03;2.22;;;;;;;;;;10496199;28;20036;-76
2023/08/12 15:56:37;;;;;;;5.82;2.17;;;;;;;;;;10496208;28;20101;-77
2023/08/12 16:01:40;;;;;;;5.13;2.20;;;;;;;;;;10500085;28;20044;-77
2023/08/12 16:06:43;;;;;;;4.95;2.40;;;;;;;;;;10503460;28;20036;-77
2023/08/12 16:11:48;;;;;;;4.72;2.70;;;;;;;;;;10508964;28;20040;-77
2023/08/12 16:16:52;;;;;;;6.30;2.67;;;;;;;;;;10494669;28;20036;-77
2023/08/12 16:21:55;;;;;;;5.18;2.90;;;;;;;;;;10501976;28;20052;-77
2023/08/12 16:27:00;;;;;;;5.00;2.47;;;;;;;;;;10501228;28;20097;-77
2023/08/12 16:32:02;;;;;;;6.25;2.70;;;;;;;;;;10506420;28;20464;-76
2023/08/12 16:37:05;;;;;;;4.97;2.55;;;;;;;;;;10503371;28;20072;-77
2023/08/12 16:42:24;;;;;;;4.80;2.42;;;;;;;;;;10509284;28;20041;-77
2023/08/12 16:47:27;;;;;;;5.95;2.90;;;;;;;;;;10511568;28;20192;-77
2023/08/12 16:52:35;;;;;;;7.15;2.83;;;;;;;;;;10511836;28;20128;-77
2023/08/12 16:57:39;;;;;;;5.90;3.00;;;;;;;;;;10507412;28;20051;-77
2023/08/12 17:02:42;;;;;;;5.45;2.97;;;;;;;;;;10501308;28;20040;-77
2023/08/12 17:07:45;;;;;;;4.85;2.65;;;;;;;;;;10507482;28;20592;-77
2023/08/12 17:12:50;;;;;;;8.02;3.03;;;;;;;;;;10513738;28;20040;-76
2023/08/12 17:17:53;;;;;;;5.53;3.03;;;;;;;;;;10509523;28;20050;-77
2023/08/12 17:22:56;;;;;;;9.07;4.65;;;;;;;;;;10511361;28;20414;-76
2023/08/12 17:28:00;;;;;;;9.68;3.40;;;;;;;;;;10509587;28;20037;-77
2023/08/12 17:33:03;;;;;;;8.02;2.70;;;;;;;;;;10512378;28;20534;-76
2023/08/12 17:38:07;;;;;;;8.30;3.80;;;;;;;;;;10510542;28;20036;-77
2023/08/12 17:43:12;;;;;;;5.47;3.28;;;;;;;;;;10502239;28;20098;-76
2023/08/12 17:48:19;;;;;;;7.13;3.65;;;;;;;;;;10502738;28;20609;-77
2023/08/12 17:53:21;;;;;;;5.65;3.20;;;;;;;;;;10518488;28;20044;-77
2023/08/12 17:58:26;;;;;;;8.13;3.63;;;;;;;;;;10501128;28;20085;-77
2023/08/12 18:03:29;;;;;;;7.95;3.08;;;;;;;;;;10500370;28;20060;-77
2023/08/12 18:08:33;;;;;;;7.38;3.92;;;;;;;;;;10502371;28;20041;-76
2023/08/12 18:13:37;;;;;;;10.38;4.00;;;;;;;;;;10504597;28;20040;-77
2023/08/12 18:18:39;;;;;;;7.57;3.67;;;;;;;;;;10530161;27;20048;-76
2023/08/12 18:23:42;;;;;;;9.18;3.60;;;;;;;;;;10510517;28;20127;-76
2023/08/12 18:28:47;;;;;;;7.63;4.20;;;;;;;;;;10508392;28;20078;-76
2023/08/12 18:33:50;;;;;;;11.77;3.92;;;;;;;;;;10498426;28;20123;-77
2023/08/12 18:38:53;;;;;;;10.18;4.53;;;;;;;;;;10502707;28;20045;-77
2023/08/12 18:43:57;;;;;;;8.70;3.88;;;;;;;;;;10508634;28;20048;-76
2023/08/12 18:48:59;;;;;;;7.32;3.60;;;;;;;;;;10502309;28;20115;-76
2023/08/12 18:54:04;;;;;;;8.60;3.97;;;;;;;;;;10498008;28;20040;-76
2023/08/12 18:59:11;;;;;;;7.95;3.92;;;;;;;;;;10498235;28;20588;-76
2023/08/12 19:04:14;;;;;;;8.50;3.67;;;;;;;;;;10503267;28;20415;-76
2023/08/12 19:09:17;;;;;;;8.27;3.53;;;;;;;;;;10502688;28;20084;-76
2023/08/12 19:14:21;;;;;;;6.93;3.85;;;;;;;;;;10500829;28;20052;-76
2023/08/12 19:19:25;;;;;;;8.05;3.83;;;;;;;;;;10506809;28;20102;-76
2023/08/12 19:24:28;;;;;;;11.45;3.63;;;;;;;;;;10503133;28;20584;-77
2023/08/12 19:29:32;;;;;;;5.30;3.30;;;;;;;;;;10500563;28;20048;-77
2023/08/12 19:34:35;;;;;;;7.55;3.50;;;;;;;;;;10501767;28;20071;-76
2023/08/12 19:39:38;;;;;;;;;;;;;;;;;;10511584;28;20446;-77
2023/08/12 19:44:43;;;;;;;5.18;2.83;;;;;;;;;;10508745;28;20396;-76
2023/08/12 19:49:46;;;;;;;7.93;3.13;;;;;;;;;;10500946;28;20521;-77
2023/08/12 19:54:48;;;;;;;5.57;3.13;;;;;;;;;;10508781;28;20044;-76
2023/08/12 19:59:54;;;;;;;5.65;2.83;;;;;;;;;;10502418;28;20068;-77
2023/08/12 20:04:58;;;;;;;4.95;2.80;;;;;;;;;;10507459;28;20482;-77
2023/08/12 20:10:02;;;;;;;4.97;2.53;;;;;;;;;;10510910;28;20044;-77
2023/08/12 20:15:07;;;;;;;5.78;3.35;;;;;;;;;;10518277;28;20051;-77
2023/08/12 20:20:11;;;;;;;5.00;2.90;;;;;;;;;;10508597;28;20036;-77
2023/08/12 20:25:15;;;;;;;7.45;3.20;;;;;;;;;;10509149;28;20424;-77
2023/08/12 20:30:19;;;;;;;8.43;4.07;;;;;;;;;;10502525;28;20127;-76
2023/08/12 20:35:28;;;;;;;6.88;3.47;;;;;;;;;;10511098;28;20064;-76
2023/08/12 20:40:31;;;;;;;5.28;2.97;;;;;;;;;;10509177;28;20039;-77
2023/08/12 20:45:36;;;;;;;5.88;3.47;;;;;;;;;;10513012;28;20036;-78
2023/08/12 20:50:39;;;;;;;5.57;2.90;;;;;;;;;;10519894;28;20105;-77
2023/08/12 20:55:42;;;;;;;;;;;;;;;;;;10508152;28;20052;-77
2023/08/12 21:00:45;;;;;;;;;;;;;;;;;;10513944;28;20446;-75
2023/08/12 21:05:51;;;;;;;8.95;4.70;;;;;;;;;;10508190;28;19967;-77
2023/08/12 21:10:54;;;;;;;8.70;3.95;;;;;;;;;;10506217;28;20040;-77
2023/08/12 21:15:56;;;;;;;;;;;;;;;;;;10512700;28;20064;-77
2023/08/12 21:21:00;;;;;;;8.63;3.80;;;;;;;;;;10516509;28;20344;-76
2023/08/12 21:26:05;;;;;;;8.50;4.40;;;;;;;;;;10505480;28;20048;-77
2023/08/12 21:31:11;;;;;;;7.35;3.47;;;;;;;;;;10506119;28;20058;-77
2023/08/12 21:36:16;;;;;;;7.43;3.35;;;;;;;;;;10512492;28;20044;-78
2023/08/12 21:41:19;;;;;;;4.85;3.22;;;;;;;;;;10512620;28;20457;-77
2023/08/12 21:46:22;;;;;;;7.90;3.40;;;;;;;;;;10502119;28;20074;-77
2023/08/12 21:51:26;;;;;;;9.80;5.43;;;;;;;;;;10516596;28;20064;-77
2023/08/12 21:56:29;;;;;;;7.95;4.10;;;;;;;;;;10514701;28;20063;-77
2023/08/12 22:01:31;;;;;;;6.63;3.70;;;;;;;;;;10510148;28;20040;-76
2023/08/12 22:06:36;;;;;;;6.50;3.58;;;;;;;;;;10506622;28;20072;-78
2023/08/12 22:11:39;;;;;;;7.88;3.92;;;;;;;;;;10497445;28;20128;-78
2023/08/12 22:16:42;;;;;;;;;;;;;;;;;;10505565;28;20410;-77
2023/08/12 22:21:46;;;;;;;7.87;4.20;;;;;;;;;;10506329;28;19920;-77
2023/08/12 22:26:49;;;;;;;8.60;4.05;;;;;;;;;;10503076;28;20378;-77
2023/08/12 22:32:00;;;;;;;9.55;4.20;;;;;;;;;;10502525;28;20123;-78
2023/08/12 22:37:04;;;;;;;7.82;4.28;;;;;;;;;;10508181;28;20097;-78
2023/08/12 22:42:07;;;;;;;7.68;4.03;;;;;;;;;;10501077;28;20068;-78
2023/08/12 22:47:10;;;;;;;6.32;3.85;;;;;;;;;;10521875;28;20085;-78
2023/08/12 22:52:14;;;;;;;5.97;3.60;;;;;;;;;;10505256;28;20704;-77
2023/08/12 22:57:17;;;;;;;5.78;3.78;;;;;;;;;;10509654;28;20043;-77
2023/08/12 23:02:21;;;;;;;9.00;3.88;;;;;;;;;;10507824;28;20036;-77
2023/08/12 23:07:25;;;;;;;6.43;3.80;;;;;;;;;;10506327;28;20182;-77
2023/08/12 23:12:34;;;;;;;6.72;4.00;;;;;;;;;;10500023;28;20044;-77
2023/08/12 23:17:36;;;;;;;7.50;4.18;;;;;;;;;;10501510;28;20063;-76
2023/08/12 23:22:39;;;;;;;;;;;;;;;;;;10505107;28;20048;-76
2023/08/12 23:27:44;;;;;;;6.27;3.90;;;;;;;;;;10505222;28;19963;-77
2023/08/12 23:32:47;;;;;;;7.53;3.97;;;;;;;;;;10507010;28;20035;-76
2023/08/12 23:37:51;;;;;;;7.35;4.22;;;;;;;;;;10508910;28;20079;-76
2023/08/12 23:42:55;;;;;;;6.78;3.80;;;;;;;;;;10513497;28;20106;-77
2023/08/12 23:47:57;;;;;;;8.55;4.28;;;;;;;;;;10510172;28;20649;-77
2023/08/12 23:53:00;;;;;;;9.27;4.50;;;;;;;;;;10507536;28;20040;-77
2023/08/12 23:58:05;;;;;;;9.00;4.85;;;;;;;;;;10507428;28;20490;-76
